createdAt,value
2022-10-02T00:00:02.114Z,936.62
2022-10-02T00:01:02.004Z,936.66
2022-10-02T00:02:01.993Z,936.63
2022-10-02T00:03:01.995Z,936.67
2022-10-02T00:04:02.050Z,936.68
2022-10-02T00:05:01.964Z,936.72
2022-10-02T00:06:01.953Z,936.71
2022-10-02T00:07:01.937Z,936.70
2022-10-02T00:08:01.931Z,936.73
2022-10-02T00:09:01.925Z,936.75
2022-10-02T00:10:01.906Z,936.70
2022-10-02T00:11:01.897Z,936.75
2022-10-02T00:12:01.891Z,936.73
2022-10-02T00:13:01.946Z,936.74
2022-10-02T00:14:01.868Z,936.72
2022-10-02T00:15:01.957Z,936.74
2022-10-02T00:16:01.888Z,936.74
2022-10-02T00:17:01.836Z,936.70
2022-10-02T00:18:01.827Z,936.68
2022-10-02T00:19:01.816Z,936.72
2022-10-02T00:20:01.806Z,936.68
2022-10-02T00:21:01.791Z,936.72
2022-10-02T00:22:01.785Z,936.69
2022-10-02T00:23:01.766Z,936.67
2022-10-02T00:24:01.760Z,936.65
2022-10-02T00:25:01.748Z,936.65
2022-10-02T00:26:01.836Z,936.69
2022-10-02T00:27:01.724Z,936.72
2022-10-02T00:28:01.772Z,936.75
2022-10-02T00:29:01.706Z,936.76
2022-10-02T00:30:01.698Z,936.75
2022-10-02T00:31:01.683Z,936.71
2022-10-02T00:32:01.836Z,936.72
2022-10-02T00:33:01.659Z,936.73
2022-10-02T00:34:01.654Z,936.69
2022-10-02T00:35:01.643Z,936.63
2022-10-02T00:36:01.627Z,936.66
2022-10-02T00:37:01.623Z,936.67
2022-10-02T00:38:01.707Z,936.66
2022-10-02T00:39:01.595Z,936.68
2022-10-02T00:40:01.587Z,936.71
2022-10-02T00:41:01.578Z,936.71
2022-10-02T00:42:01.570Z,936.74
2022-10-02T00:43:01.558Z,936.69
2022-10-02T00:44:01.646Z,936.67
2022-10-02T00:45:01.536Z,936.72
2022-10-02T00:46:01.583Z,936.76
2022-10-02T00:47:01.511Z,936.76
2022-10-02T00:48:01.504Z,936.73
2022-10-02T00:49:01.589Z,936.73
2022-10-02T00:50:01.484Z,936.76
2022-10-02T00:51:01.466Z,936.76
2022-10-02T00:52:01.456Z,936.75
2022-10-02T00:53:01.448Z,936.79
2022-10-02T00:54:01.557Z,936.77
2022-10-02T00:55:01.428Z,936.78
2022-10-02T00:56:01.420Z,936.81
2022-10-02T00:57:01.409Z,936.84
2022-10-02T00:58:01.397Z,936.82
2022-10-02T00:59:01.480Z,936.87
2022-10-02T01:00:01.371Z,936.86
2022-10-02T01:01:01.403Z,936.89
2022-10-02T01:02:01.398Z,936.89
2022-10-02T01:03:01.341Z,936.84
2022-10-02T01:04:01.431Z,936.82
2022-10-02T01:05:01.315Z,936.81
2022-10-02T01:06:01.313Z,936.81
2022-10-02T01:07:01.300Z,936.79
2022-10-02T01:08:01.288Z,936.78
2022-10-02T01:09:01.372Z,936.74
2022-10-02T01:10:01.265Z,936.72
2022-10-02T01:11:01.255Z,936.68
2022-10-02T01:12:01.240Z,936.67
2022-10-02T01:13:01.236Z,936.67
2022-10-02T01:14:01.326Z,936.67
2022-10-02T01:15:01.212Z,936.65
2022-10-02T01:16:01.250Z,936.63
2022-10-02T01:17:01.194Z,936.64
2022-10-02T01:18:01.181Z,936.62
2022-10-02T01:19:01.267Z,936.63
2022-10-02T01:20:01.159Z,936.63
2022-10-02T01:21:01.147Z,936.60
2022-10-02T01:22:01.139Z,936.56
2022-10-02T01:23:01.128Z,936.55
2022-10-02T01:24:01.213Z,936.56
2022-10-02T01:25:01.101Z,936.56
2022-10-02T01:26:01.094Z,936.56
2022-10-02T01:27:01.083Z,936.58
2022-10-02T01:28:01.128Z,936.57
2022-10-02T01:29:01.156Z,936.57
2022-10-02T01:30:01.049Z,936.60
2022-10-02T01:31:01.032Z,936.56
2022-10-02T01:32:01.077Z,936.57
2022-10-02T01:33:01.010Z,936.56
2022-10-02T01:34:01.000Z,936.56
2022-10-02T01:35:01.000Z,936.55
2022-10-02T01:36:00.978Z,936.53
2022-10-02T01:37:00.974Z,936.52
2022-10-02T01:38:00.961Z,936.54
2022-10-02T01:39:00.945Z,936.55
2022-10-02T01:40:00.941Z,936.51
2022-10-02T01:41:00.922Z,936.48
2022-10-02T01:42:00.915Z,936.48
2022-10-02T01:43:00.908Z,936.45
2022-10-02T01:44:00.897Z,936.45
2022-10-02T01:45:00.883Z,936.48
2022-10-02T01:46:00.936Z,936.45
2022-10-02T01:47:00.865Z,936.45
2022-10-02T01:48:00.852Z,936.45
2022-10-02T01:49:00.839Z,936.43
2022-10-02T01:50:00.830Z,936.45
2022-10-02T01:51:00.815Z,936.42
2022-10-02T01:52:00.805Z,936.42
2022-10-02T01:53:00.790Z,936.46
2022-10-02T01:54:00.783Z,936.40
2022-10-02T01:55:00.771Z,936.39
2022-10-02T01:56:00.758Z,936.43
2022-10-02T01:57:00.753Z,936.38
2022-10-02T01:58:00.741Z,936.38
2022-10-02T01:59:00.727Z,936.35
2022-10-02T02:00:00.719Z,936.30
2022-10-02T02:01:00.784Z,936.29
2022-10-02T02:02:00.746Z,936.25
2022-10-02T02:03:00.681Z,936.24
2022-10-02T02:04:00.678Z,936.22
2022-10-02T02:05:00.665Z,936.23
2022-10-02T02:06:00.649Z,936.25
2022-10-02T02:07:00.635Z,936.18
2022-10-02T02:08:00.630Z,936.23
2022-10-02T02:09:02.028Z,936.22
2022-10-02T02:10:00.603Z,936.21
2022-10-02T02:11:00.598Z,936.21
2022-10-02T02:12:00.581Z,936.20
2022-10-02T02:13:00.569Z,936.21
2022-10-02T02:14:00.567Z,936.22
2022-10-02T02:15:00.554Z,936.24
2022-10-02T02:16:00.710Z,936.17
2022-10-02T02:17:00.573Z,936.22
2022-10-02T02:18:00.518Z,936.20
2022-10-02T02:19:00.506Z,936.21
2022-10-02T02:20:00.492Z,936.24
2022-10-02T02:21:00.484Z,936.26
2022-10-02T02:22:00.476Z,936.27
2022-10-02T02:23:00.463Z,936.29
2022-10-02T02:24:00.449Z,936.31
2022-10-02T02:25:00.435Z,936.27
2022-10-02T02:26:00.532Z,936.27
2022-10-02T02:27:00.414Z,936.30
2022-10-02T02:28:00.452Z,936.30
2022-10-02T02:29:00.392Z,936.34
2022-10-02T02:30:00.381Z,936.35
2022-10-02T02:31:00.370Z,936.34
2022-10-02T02:32:00.408Z,936.32
2022-10-02T02:33:00.351Z,936.33
2022-10-02T02:34:00.338Z,936.35
2022-10-02T02:35:00.338Z,936.35
2022-10-02T02:36:00.315Z,936.36
2022-10-02T02:37:00.308Z,936.34
2022-10-02T02:38:00.293Z,936.37
2022-10-02T02:39:00.285Z,936.40
2022-10-02T02:40:00.285Z,936.39
2022-10-02T02:41:00.359Z,936.39
2022-10-02T02:42:00.249Z,936.39
2022-10-02T02:43:00.244Z,936.39
2022-10-02T02:44:00.226Z,936.38
2022-10-02T02:45:00.217Z,936.36
2022-10-02T02:46:00.279Z,936.31
2022-10-02T02:47:00.191Z,936.35
2022-10-02T02:48:00.185Z,936.36
2022-10-02T02:49:00.173Z,936.29
2022-10-02T02:50:00.173Z,936.35
2022-10-02T02:51:00.251Z,936.34
2022-10-02T02:52:00.143Z,936.33
2022-10-02T02:53:00.133Z,936.37
2022-10-02T02:54:00.118Z,936.35
2022-10-02T02:55:00.106Z,936.34
2022-10-02T02:56:00.095Z,936.32
2022-10-02T02:57:00.086Z,936.30
2022-10-02T02:58:00.083Z,936.27
2022-10-02T02:59:00.057Z,936.27
2022-10-02T03:00:00.048Z,936.25
2022-10-02T03:01:00.206Z,936.24
2022-10-02T03:02:00.058Z,936.23
2022-10-02T03:03:00.017Z,936.18
2022-10-02T03:04:00.004Z,936.22
2022-10-02T03:04:59.996Z,936.19
2022-10-02T03:05:59.983Z,936.22
2022-10-02T03:06:59.974Z,936.23
2022-10-02T03:07:59.962Z,936.24
2022-10-02T03:08:59.947Z,936.24
2022-10-02T03:09:59.937Z,936.26
2022-10-02T03:10:59.921Z,936.26
2022-10-02T03:11:59.911Z,936.26
2022-10-02T03:12:59.907Z,936.25
2022-10-02T03:13:59.890Z,936.25
2022-10-02T03:14:59.876Z,936.27
2022-10-02T03:15:59.895Z,936.24
2022-10-02T03:16:59.854Z,936.24
2022-10-02T03:17:59.846Z,936.20
2022-10-02T03:18:59.834Z,936.22
2022-10-02T03:19:59.821Z,936.20
2022-10-02T03:20:59.817Z,936.20
2022-10-02T03:21:59.801Z,936.15
2022-10-02T03:22:59.786Z,936.17
2022-10-02T03:23:59.779Z,936.18
2022-10-02T03:24:59.766Z,936.15
2022-10-02T03:25:59.756Z,936.16
2022-10-02T03:26:59.752Z,936.19
2022-10-02T03:27:59.781Z,936.17
2022-10-02T03:28:59.776Z,936.14
2022-10-02T03:29:59.710Z,936.14
2022-10-02T03:30:59.705Z,936.12
2022-10-02T03:31:59.690Z,936.10
2022-10-02T03:32:59.778Z,936.11
2022-10-02T03:33:59.666Z,936.07
2022-10-02T03:34:59.658Z,936.07
2022-10-02T03:35:59.641Z,936.05
2022-10-02T03:36:59.639Z,936.02
2022-10-02T03:37:59.623Z,936.02
2022-10-02T03:39:24.158Z,936.02
2022-10-02T03:39:59.611Z,935.98
2022-10-02T03:40:59.588Z,935.97
2022-10-02T03:41:59.577Z,935.96
2022-10-02T03:42:59.560Z,935.96
2022-10-02T03:43:59.554Z,935.98
2022-10-02T03:44:59.639Z,935.94
2022-10-02T03:45:59.556Z,935.95
2022-10-02T03:46:59.518Z,935.93
2022-10-02T03:47:59.505Z,935.94
2022-10-02T03:48:59.496Z,935.98
2022-10-02T03:49:59.583Z,935.97
2022-10-02T03:50:59.476Z,935.97
2022-10-02T03:51:59.464Z,935.93
2022-10-02T03:52:59.450Z,935.93
2022-10-02T03:53:59.438Z,935.93
2022-10-02T03:54:59.527Z,935.91
2022-10-02T03:55:59.416Z,935.88
2022-10-02T03:56:59.400Z,935.91
2022-10-02T03:57:59.391Z,935.86
2022-10-02T03:58:59.376Z,935.90
2022-10-02T03:59:59.370Z,935.87
2022-10-02T04:00:59.358Z,935.84
2022-10-02T04:01:59.400Z,935.80
2022-10-02T04:02:59.338Z,935.83
2022-10-02T04:03:59.450Z,935.79
2022-10-02T04:04:59.310Z,935.78
2022-10-02T04:05:59.299Z,935.79
2022-10-02T04:06:59.291Z,935.76
2022-10-02T04:07:59.281Z,935.78
2022-10-02T04:08:59.269Z,935.78
2022-10-02T04:09:59.357Z,935.72
2022-10-02T04:10:59.245Z,935.79
2022-10-02T04:11:59.234Z,935.77
2022-10-02T04:12:59.220Z,935.77
2022-10-02T04:13:59.205Z,935.79
2022-10-02T04:14:59.200Z,935.77
2022-10-02T04:15:59.252Z,935.76
2022-10-02T04:16:59.178Z,935.73
2022-10-02T04:17:59.251Z,935.72
2022-10-02T04:18:59.154Z,935.67
2022-10-02T04:19:59.243Z,935.68
2022-10-02T04:20:59.132Z,935.65
2022-10-02T04:21:59.116Z,935.62
2022-10-02T04:22:59.114Z,935.57
2022-10-02T04:23:59.094Z,935.60
2022-10-02T04:24:59.086Z,935.59
2022-10-02T04:25:59.072Z,935.58
2022-10-02T04:26:59.062Z,935.56
2022-10-02T04:27:59.101Z,935.52
2022-10-02T04:28:59.047Z,935.51
2022-10-02T04:29:59.030Z,935.52
2022-10-02T04:30:59.017Z,935.50
2022-10-02T04:31:59.068Z,935.48
2022-10-02T04:32:58.996Z,935.46
2022-10-02T04:33:58.989Z,935.45
2022-10-02T04:34:59.079Z,935.45
2022-10-02T04:35:58.965Z,935.43
2022-10-02T04:36:58.956Z,935.43
2022-10-02T04:37:58.943Z,935.41
2022-10-02T04:38:58.931Z,935.38
2022-10-02T04:39:58.923Z,935.37
2022-10-02T04:40:58.910Z,935.39
2022-10-02T04:41:58.893Z,935.38
2022-10-02T04:42:58.884Z,935.32
2022-10-02T04:43:58.872Z,935.31
2022-10-02T04:44:58.863Z,935.32
2022-10-02T04:45:58.912Z,935.32
2022-10-02T04:46:58.839Z,935.30
2022-10-02T04:47:58.836Z,935.31
2022-10-02T04:48:58.819Z,935.27
2022-10-02T04:49:58.804Z,935.22
2022-10-02T04:50:58.892Z,935.22
2022-10-02T04:51:58.787Z,935.21
2022-10-02T04:52:58.770Z,935.24
2022-10-02T04:53:58.755Z,935.25
2022-10-02T04:54:58.751Z,935.25
2022-10-02T04:55:58.732Z,935.23
2022-10-02T04:56:58.726Z,935.23
2022-10-02T04:57:58.711Z,935.20
2022-10-02T04:58:58.701Z,935.20
2022-10-02T04:59:58.691Z,935.17
2022-10-02T05:00:58.712Z,935.17
2022-10-02T05:01:58.740Z,935.15
2022-10-02T05:02:58.751Z,935.11
2022-10-02T05:04:01.919Z,935.09
2022-10-02T05:04:58.632Z,935.07
2022-10-02T05:05:58.614Z,935.08
2022-10-02T05:06:58.612Z,935.12
2022-10-02T05:07:58.597Z,935.09
2022-10-02T05:08:58.684Z,935.09
2022-10-02T05:09:58.567Z,935.10
2022-10-02T05:10:58.560Z,935.09
2022-10-02T05:11:58.547Z,935.11
2022-10-02T05:12:58.536Z,935.11
2022-10-02T05:13:58.625Z,935.08
2022-10-02T05:14:58.514Z,935.05
2022-10-02T05:15:58.525Z,935.04
2022-10-02T05:16:58.495Z,935.00
2022-10-02T05:17:58.476Z,934.98
2022-10-02T05:18:58.563Z,934.98
2022-10-02T05:19:58.457Z,934.98
2022-10-02T05:20:58.445Z,934.98
2022-10-02T05:21:58.431Z,934.98
2022-10-02T05:22:58.426Z,935.00
2022-10-02T05:23:58.513Z,934.98
2022-10-02T05:24:58.393Z,934.92
2022-10-02T05:25:58.382Z,934.93
2022-10-02T05:26:58.373Z,934.89
2022-10-02T05:27:58.390Z,934.92
2022-10-02T05:28:58.449Z,934.86
2022-10-02T05:29:58.337Z,934.87
2022-10-02T05:30:58.389Z,934.89
2022-10-02T05:31:58.310Z,934.82
2022-10-02T05:32:58.302Z,934.85
2022-10-02T05:33:58.394Z,934.83
2022-10-02T05:34:58.283Z,934.83
2022-10-02T05:35:58.270Z,934.82
2022-10-02T05:36:58.255Z,934.82
2022-10-02T05:37:58.244Z,934.80
2022-10-02T05:38:58.333Z,934.76
2022-10-02T05:39:58.217Z,934.77
2022-10-02T05:40:58.211Z,934.77
2022-10-02T05:41:58.198Z,934.77
2022-10-02T05:42:58.188Z,934.76
2022-10-02T05:43:58.274Z,934.75
2022-10-02T05:44:58.163Z,934.74
2022-10-02T05:45:58.148Z,934.72
2022-10-02T05:46:58.177Z,934.70
2022-10-02T05:47:58.129Z,934.71
2022-10-02T05:48:58.217Z,934.70
2022-10-02T05:49:58.105Z,934.68
2022-10-02T05:50:58.087Z,934.74
2022-10-02T05:51:58.083Z,934.75
2022-10-02T05:52:58.069Z,934.73
2022-10-02T05:53:58.151Z,934.76
2022-10-02T05:54:58.046Z,934.78
2022-10-02T05:55:58.033Z,934.77
2022-10-02T05:56:58.022Z,934.79
2022-10-02T05:57:58.011Z,934.80
2022-10-02T05:58:58.101Z,934.82
2022-10-02T05:59:57.981Z,934.84
2022-10-02T06:00:57.994Z,934.83
2022-10-02T06:01:58.014Z,934.82
2022-10-02T06:02:57.951Z,934.84
2022-10-02T06:03:58.034Z,934.83
2022-10-02T06:04:57.929Z,934.81
2022-10-02T06:05:57.911Z,934.79
2022-10-02T06:06:57.903Z,934.80
2022-10-02T06:07:57.890Z,934.79
2022-10-02T06:08:57.879Z,934.79
2022-10-02T06:09:57.966Z,934.78
2022-10-02T06:10:57.856Z,934.78
2022-10-02T06:11:57.840Z,934.79
2022-10-02T06:12:57.831Z,934.77
2022-10-02T06:13:57.818Z,934.82
2022-10-02T06:14:57.816Z,934.81
2022-10-02T06:15:57.859Z,934.82
2022-10-02T06:16:57.796Z,934.83
2022-10-02T06:17:57.775Z,934.86
2022-10-02T06:18:57.759Z,934.89
2022-10-02T06:20:02.354Z,934.95
2022-10-02T06:20:57.835Z,934.92
2022-10-02T06:21:57.725Z,934.93
2022-10-02T06:22:57.713Z,934.92
2022-10-02T06:23:57.698Z,934.90
2022-10-02T06:24:57.692Z,934.89
2022-10-02T06:25:57.682Z,934.89
2022-10-02T06:26:57.766Z,934.85
2022-10-02T06:27:57.738Z,934.88
2022-10-02T06:28:57.642Z,934.89
2022-10-02T06:29:57.630Z,934.82
2022-10-02T06:30:57.625Z,934.85
2022-10-02T06:31:57.655Z,934.83
2022-10-02T06:32:57.701Z,934.84
2022-10-02T06:33:57.586Z,934.90
2022-10-02T06:34:57.570Z,934.91
2022-10-02T06:35:57.558Z,934.91
2022-10-02T06:36:57.553Z,934.93
2022-10-02T06:37:57.543Z,934.93
2022-10-02T06:38:57.533Z,934.93
2022-10-02T06:39:57.513Z,934.95
2022-10-02T06:40:57.504Z,934.91
2022-10-02T06:41:57.493Z,934.91
2022-10-02T06:42:57.479Z,934.96
2022-10-02T06:43:57.469Z,934.94
2022-10-02T06:44:57.457Z,934.95
2022-10-02T06:45:57.491Z,934.93
2022-10-02T06:46:57.435Z,934.95
2022-10-02T06:47:57.426Z,934.92
2022-10-02T06:48:57.512Z,934.95
2022-10-02T06:49:57.399Z,934.93
2022-10-02T06:50:57.387Z,934.99
2022-10-02T06:51:57.377Z,934.99
2022-10-02T06:52:57.362Z,934.99
2022-10-02T06:53:57.356Z,934.99
2022-10-02T06:54:57.339Z,934.96
2022-10-02T06:55:57.330Z,935.00
2022-10-02T06:56:57.319Z,935.00
2022-10-02T06:57:57.306Z,935.02
2022-10-02T06:58:57.396Z,935.00
2022-10-02T06:59:57.279Z,935.00
2022-10-02T07:00:57.293Z,935.03
2022-10-02T07:01:57.537Z,935.02
2022-10-02T07:02:57.248Z,935.01
2022-10-02T07:03:57.232Z,935.01
2022-10-02T07:04:57.228Z,935.05
2022-10-02T07:05:57.211Z,935.09
2022-10-02T07:06:57.212Z,935.11
2022-10-02T07:07:57.189Z,935.11
2022-10-02T07:08:57.287Z,935.09
2022-10-02T07:09:57.160Z,935.12
2022-10-02T07:10:57.149Z,935.10
2022-10-02T07:11:57.144Z,935.14
2022-10-02T07:12:57.134Z,935.14
2022-10-02T07:13:57.120Z,935.12
2022-10-02T07:14:57.107Z,935.14
2022-10-02T07:15:57.132Z,935.08
2022-10-02T07:16:57.083Z,935.12
2022-10-02T07:17:57.069Z,935.11
2022-10-02T07:18:57.056Z,935.18
2022-10-02T07:19:57.047Z,935.16
2022-10-02T07:20:57.040Z,935.13
2022-10-02T07:21:57.023Z,935.16
2022-10-02T07:22:57.010Z,935.13
2022-10-02T07:24:01.447Z,935.13
2022-10-02T07:24:56.990Z,935.17
2022-10-02T07:25:56.975Z,935.14
2022-10-02T07:26:56.970Z,935.15
2022-10-02T07:27:56.981Z,935.18
2022-10-02T07:28:56.941Z,935.15
2022-10-02T07:29:56.927Z,935.15
2022-10-02T07:30:56.913Z,935.14
2022-10-02T07:31:56.932Z,935.17
2022-10-02T07:32:56.892Z,935.14
2022-10-02T07:33:56.881Z,935.16
2022-10-02T07:34:56.972Z,935.20
2022-10-02T07:35:56.858Z,935.19
2022-10-02T07:36:56.840Z,935.17
2022-10-02T07:37:56.826Z,935.18
2022-10-02T07:38:56.819Z,935.17
2022-10-02T07:39:56.810Z,935.12
2022-10-02T07:40:59.875Z,935.14
2022-10-02T07:41:56.784Z,935.15
2022-10-02T07:42:56.774Z,935.16
2022-10-02T07:43:56.759Z,935.16
2022-10-02T07:44:56.744Z,935.19
2022-10-02T07:45:56.952Z,935.17
2022-10-02T07:46:56.724Z,935.14
2022-10-02T07:47:56.714Z,935.16
2022-10-02T07:48:56.696Z,935.17
2022-10-02T07:49:56.686Z,935.17
2022-10-02T07:50:56.676Z,935.22
2022-10-02T07:51:56.763Z,935.18
2022-10-02T07:52:56.649Z,935.22
2022-10-02T07:53:56.635Z,935.19
2022-10-02T07:54:56.630Z,935.22
2022-10-02T07:55:56.615Z,935.22
2022-10-02T07:56:56.603Z,935.22
2022-10-02T07:57:56.690Z,935.23
2022-10-02T07:58:56.576Z,935.25
2022-10-02T07:59:56.568Z,935.25
2022-10-02T08:00:56.557Z,935.23
2022-10-02T08:01:56.575Z,935.23
2022-10-02T08:02:56.739Z,935.27
2022-10-02T08:03:56.517Z,935.29
2022-10-02T08:04:56.508Z,935.32
2022-10-02T08:05:56.491Z,935.31
2022-10-02T08:06:56.483Z,935.33
2022-10-02T08:07:56.570Z,935.35
2022-10-02T08:08:56.459Z,935.38
2022-10-02T08:09:56.444Z,935.36
2022-10-02T08:10:56.435Z,935.38
2022-10-02T08:11:56.423Z,935.40
2022-10-02T08:12:56.510Z,935.37
2022-10-02T08:13:56.393Z,935.35
2022-10-02T08:14:56.388Z,935.37
2022-10-02T08:15:56.452Z,935.35
2022-10-02T08:16:56.397Z,935.37
2022-10-02T08:17:58.755Z,935.36
2022-10-02T08:18:56.333Z,935.42
2022-10-02T08:19:56.325Z,935.39
2022-10-02T08:20:56.309Z,935.41
2022-10-02T08:21:56.302Z,935.43
2022-10-02T08:22:56.387Z,935.39
2022-10-02T08:23:56.277Z,935.41
2022-10-02T08:24:56.263Z,935.45
2022-10-02T08:25:56.247Z,935.43
2022-10-02T08:26:56.241Z,935.44
2022-10-02T08:27:56.371Z,935.43
2022-10-02T08:28:56.217Z,935.43
2022-10-02T08:29:56.215Z,935.42
2022-10-02T08:30:56.192Z,935.44
2022-10-02T08:31:56.208Z,935.43
2022-10-02T08:32:56.267Z,935.45
2022-10-02T08:33:56.154Z,935.43
2022-10-02T08:34:56.137Z,935.43
2022-10-02T08:35:56.131Z,935.45
2022-10-02T08:36:56.113Z,935.47
2022-10-02T08:37:56.204Z,935.47
2022-10-02T08:38:56.089Z,935.49
2022-10-02T08:39:56.086Z,935.50
2022-10-02T08:40:56.068Z,935.50
2022-10-02T08:41:56.052Z,935.51
2022-10-02T08:42:56.145Z,935.55
2022-10-02T08:43:56.035Z,935.53
2022-10-02T08:44:56.016Z,935.53
2022-10-02T08:45:56.060Z,935.53
2022-10-02T08:46:55.995Z,935.53
2022-10-02T08:47:56.080Z,935.55
2022-10-02T08:48:55.966Z,935.52
2022-10-02T08:49:55.959Z,935.56
2022-10-02T08:50:55.946Z,935.52
2022-10-02T08:51:55.946Z,935.54
2022-10-02T08:52:55.924Z,935.58
2022-10-02T08:53:56.010Z,935.55
2022-10-02T08:54:55.895Z,935.59
2022-10-02T08:55:55.884Z,935.59
2022-10-02T08:56:55.875Z,935.58
2022-10-02T08:57:55.863Z,935.59
2022-10-02T08:58:55.847Z,935.57
2022-10-02T08:59:55.934Z,935.61
2022-10-02T09:00:55.891Z,935.58
2022-10-02T09:01:59.672Z,935.61
2022-10-02T09:02:55.798Z,935.65
2022-10-02T09:03:55.794Z,935.63
2022-10-02T09:04:55.878Z,935.67
2022-10-02T09:05:55.765Z,935.69
2022-10-02T09:06:55.751Z,935.69
2022-10-02T09:07:55.739Z,935.69
2022-10-02T09:08:55.729Z,935.69
2022-10-02T09:09:55.818Z,935.68
2022-10-02T09:10:55.707Z,935.67
2022-10-02T09:11:55.696Z,935.71
2022-10-02T09:12:55.678Z,935.71
2022-10-02T09:13:55.666Z,935.72
2022-10-02T09:14:58.788Z,935.72
2022-10-02T09:15:55.765Z,935.71
2022-10-02T09:16:55.662Z,935.74
2022-10-02T09:17:55.618Z,935.75
2022-10-02T09:18:55.604Z,935.72
2022-10-02T09:19:55.598Z,935.73
2022-10-02T09:20:55.590Z,935.75
2022-10-02T09:21:55.669Z,935.73
2022-10-02T09:22:55.560Z,935.74
2022-10-02T09:23:55.549Z,935.74
2022-10-02T09:24:55.540Z,935.73
2022-10-02T09:25:55.520Z,935.73
2022-10-02T09:26:55.508Z,935.73
2022-10-02T09:27:55.556Z,935.74
2022-10-02T09:28:55.485Z,935.74
2022-10-02T09:29:55.479Z,935.73
2022-10-02T09:30:55.462Z,935.73
2022-10-02T09:31:55.481Z,935.75
2022-10-02T09:32:55.440Z,935.73
2022-10-02T09:33:55.428Z,935.78
2022-10-02T09:34:55.413Z,935.77
2022-10-02T09:35:55.406Z,935.79
2022-10-02T09:36:55.387Z,935.79
2022-10-02T09:37:55.376Z,935.82
2022-10-02T09:38:55.365Z,935.84
2022-10-02T09:39:55.356Z,935.82
2022-10-02T09:40:55.343Z,935.89
2022-10-02T09:41:55.430Z,935.90
2022-10-02T09:42:55.325Z,935.91
2022-10-02T09:43:55.308Z,935.92
2022-10-02T09:44:58.097Z,935.95
2022-10-02T09:45:55.341Z,935.94
2022-10-02T09:46:55.271Z,935.99
2022-10-02T09:47:55.260Z,936.00
2022-10-02T09:48:55.245Z,936.03
2022-10-02T09:49:55.235Z,936.06
2022-10-02T09:50:55.219Z,936.07
2022-10-02T09:51:55.315Z,936.11
2022-10-02T09:52:55.201Z,936.13
2022-10-02T09:53:55.187Z,936.12
2022-10-02T09:54:55.177Z,936.11
2022-10-02T09:55:55.162Z,936.17
2022-10-02T09:56:55.153Z,936.18
2022-10-02T09:57:55.139Z,936.19
2022-10-02T09:58:55.129Z,936.23
2022-10-02T09:59:55.112Z,936.23
2022-10-02T10:00:55.170Z,936.23
2022-10-02T10:01:55.221Z,936.28
2022-10-02T10:02:55.079Z,936.25
2022-10-02T10:03:55.063Z,936.28
2022-10-02T10:05:05.708Z,936.31
2022-10-02T10:05:55.040Z,936.36
2022-10-02T10:06:55.026Z,936.36
2022-10-02T10:07:55.018Z,936.36
2022-10-02T10:08:55.003Z,936.41
2022-10-02T10:09:54.992Z,936.44
2022-10-02T10:10:54.979Z,936.46
2022-10-02T10:11:54.978Z,936.48
2022-10-02T10:12:55.061Z,936.51
2022-10-02T10:13:54.948Z,936.43
2022-10-02T10:14:54.935Z,936.45
2022-10-02T10:15:54.925Z,936.43
2022-10-02T10:16:54.908Z,936.47
2022-10-02T10:17:54.900Z,936.43
2022-10-02T10:18:54.887Z,936.45
2022-10-02T10:19:54.878Z,936.45
2022-10-02T10:20:54.863Z,936.47
2022-10-02T10:21:54.851Z,936.45
2022-10-02T10:22:54.837Z,936.51
2022-10-02T10:23:54.831Z,936.55
2022-10-02T10:24:54.812Z,936.56
2022-10-02T10:25:54.803Z,936.58
2022-10-02T10:26:54.792Z,936.58
2022-10-02T10:27:54.847Z,936.59
2022-10-02T10:28:54.772Z,936.64
2022-10-02T10:29:54.757Z,936.60
2022-10-02T10:30:54.740Z,936.62
2022-10-02T10:31:54.748Z,936.62
2022-10-02T10:32:54.718Z,936.62
2022-10-02T10:33:54.709Z,936.64
2022-10-02T10:34:54.798Z,936.69
2022-10-02T10:35:54.686Z,936.73
2022-10-02T10:36:54.670Z,936.74
2022-10-02T10:37:54.661Z,936.79
2022-10-02T10:38:54.655Z,936.80
2022-10-02T10:39:54.637Z,936.82
2022-10-02T10:40:54.627Z,936.84
2022-10-02T10:41:54.610Z,936.84
2022-10-02T10:43:07.355Z,936.81
2022-10-02T10:43:54.591Z,936.84
2022-10-02T10:44:54.581Z,936.84
2022-10-02T10:45:54.719Z,936.88
2022-10-02T10:46:54.560Z,936.87
2022-10-02T10:47:54.548Z,936.88
2022-10-02T10:48:54.533Z,936.92
2022-10-02T10:49:54.523Z,936.91
2022-10-02T10:50:54.507Z,936.93
2022-10-02T10:51:54.495Z,936.87
2022-10-02T10:52:54.485Z,936.89
2022-10-02T10:53:58.303Z,936.88
2022-10-02T10:54:54.457Z,936.87
2022-10-02T10:55:54.551Z,936.87
2022-10-02T10:56:54.438Z,936.89
2022-10-02T10:57:54.432Z,936.89
2022-10-02T10:58:54.415Z,936.92
2022-10-02T10:59:54.406Z,936.97
2022-10-02T11:00:54.414Z,936.93
2022-10-02T11:01:54.394Z,936.97
2022-10-02T11:02:54.371Z,936.96
2022-10-02T11:03:54.359Z,936.95
2022-10-02T11:04:54.347Z,936.99
2022-10-02T11:05:54.436Z,937.01
2022-10-02T11:06:54.325Z,937.01
2022-10-02T11:07:54.313Z,936.99
2022-10-02T11:08:54.304Z,936.97
2022-10-02T11:09:54.287Z,937.00
2022-10-02T11:10:54.273Z,936.98
2022-10-02T11:11:54.267Z,937.00
2022-10-02T11:12:54.259Z,936.98
2022-10-02T11:13:54.245Z,937.00
2022-10-02T11:14:54.240Z,936.98
2022-10-02T11:15:54.224Z,937.02
2022-10-02T11:16:54.297Z,937.03
2022-10-02T11:17:54.210Z,937.04
2022-10-02T11:18:54.183Z,937.04
2022-10-02T11:19:54.176Z,937.00
2022-10-02T11:20:54.165Z,937.00
2022-10-02T11:21:54.150Z,936.99
2022-10-02T11:22:54.140Z,937.00
2022-10-02T11:23:54.135Z,937.04
2022-10-02T11:24:54.120Z,937.04
2022-10-02T11:25:54.215Z,937.07
2022-10-02T11:26:54.095Z,937.08
2022-10-02T11:27:54.206Z,937.07
2022-10-02T11:28:54.081Z,937.07
2022-10-02T11:29:54.068Z,937.10
2022-10-02T11:30:54.058Z,937.10
2022-10-02T11:31:54.067Z,937.10
2022-10-02T11:32:54.033Z,937.11
2022-10-02T11:33:54.020Z,937.08
2022-10-02T11:34:54.014Z,937.09
2022-10-02T11:35:54.003Z,937.09
2022-10-02T11:36:54.086Z,937.12
2022-10-02T11:37:53.979Z,937.09
2022-10-02T11:38:53.968Z,937.14
2022-10-02T11:39:53.956Z,937.09
2022-10-02T11:40:53.951Z,937.10
2022-10-02T11:41:53.945Z,937.10
2022-10-02T11:42:53.926Z,937.09
2022-10-02T11:43:53.916Z,937.11
2022-10-02T11:44:53.905Z,937.07
2022-10-02T11:45:53.919Z,937.08
2022-10-02T11:46:53.881Z,937.09
2022-10-02T11:47:53.874Z,937.10
2022-10-02T11:48:53.860Z,937.10
2022-10-02T11:49:53.850Z,937.08
2022-10-02T11:50:53.838Z,937.11
2022-10-02T11:51:53.826Z,937.09
2022-10-02T11:52:53.819Z,937.08
2022-10-02T11:53:53.808Z,937.09
2022-10-02T11:54:53.797Z,937.10
2022-10-02T11:55:53.788Z,937.12
2022-10-02T11:56:53.773Z,937.05
2022-10-02T11:57:53.767Z,937.11
2022-10-02T11:58:53.759Z,937.05
2022-10-02T11:59:53.746Z,937.03
2022-10-02T12:00:53.739Z,937.03
2022-10-02T12:01:53.811Z,937.06
2022-10-02T12:02:53.820Z,937.06
2022-10-02T12:03:53.705Z,937.08
2022-10-02T12:04:53.690Z,937.13
2022-10-02T12:05:53.686Z,937.10
2022-10-02T12:06:53.673Z,937.08
2022-10-02T12:07:53.663Z,937.11
2022-10-02T12:08:53.647Z,937.11
2022-10-02T12:09:53.641Z,937.08
2022-10-02T12:10:53.633Z,937.11
2022-10-02T12:11:53.624Z,937.12
2022-10-02T12:12:53.614Z,937.11
2022-10-02T12:13:53.700Z,937.13
2022-10-02T12:14:53.585Z,937.12
2022-10-02T12:15:53.579Z,937.01
2022-10-02T12:16:53.628Z,937.05
2022-10-02T12:17:53.554Z,937.06
2022-10-02T12:18:53.546Z,937.02
2022-10-02T12:19:53.638Z,936.99
2022-10-02T12:20:53.523Z,936.97
2022-10-02T12:21:53.515Z,936.96
2022-10-02T12:22:53.502Z,936.96
2022-10-02T12:23:53.492Z,936.96
2022-10-02T12:24:55.029Z,936.98
2022-10-02T12:25:53.476Z,936.96
2022-10-02T12:26:53.463Z,936.97
2022-10-02T12:27:53.486Z,937.00